createdAt,value
2023-03-15T00:00:19.506Z,100.00
2023-03-15T00:02:46.116Z,100.00
2023-03-15T00:05:15.562Z,100.00
2023-03-15T00:07:42.053Z,100.00
2023-03-15T00:10:09.005Z,100.00
2023-03-15T00:12:35.482Z,100.00
2023-03-15T00:15:02.154Z,100.00
2023-03-15T00:17:28.605Z,100.00
2023-03-15T00:19:55.045Z,100.00
2023-03-15T00:22:23.236Z,100.00
2023-03-15T00:24:49.849Z,100.00
2023-03-15T00:27:16.349Z,100.00
2023-03-15T00:29:42.794Z,100.00
2023-03-15T00:32:09.573Z,100.00
2023-03-15T00:34:36.066Z,100.00
2023-03-15T00:37:02.571Z,100.00
2023-03-15T00:39:29.176Z,100.00
2023-03-15T00:41:57.026Z,100.00
2023-03-15T00:44:24.508Z,100.00
2023-03-15T00:46:51.257Z,100.00
2023-03-15T00:49:18.308Z,100.00
2023-03-15T00:51:44.804Z,100.00
2023-03-15T00:54:13.800Z,100.00
2023-03-15T00:56:41.414Z,100.00
2023-03-15T00:59:08.626Z,100.00
2023-03-15T01:01:35.604Z,100.00
2023-03-15T01:04:02.134Z,100.00
2023-03-15T01:06:29.301Z,100.00
2023-03-15T01:08:56.736Z,100.00
2023-03-15T01:11:25.432Z,100.00
2023-03-15T01:13:53.730Z,100.00
2023-03-15T01:16:20.619Z,100.00
2023-03-15T01:18:47.478Z,100.00
2023-03-15T01:21:15.728Z,100.00
2023-03-15T01:23:42.493Z,100.00
2023-03-15T01:26:12.900Z,100.00
2023-03-15T01:28:39.849Z,100.00
2023-03-15T01:31:06.342Z,100.00
2023-03-15T01:33:32.860Z,100.00
2023-03-15T01:36:05.875Z,100.00
2023-03-15T01:38:32.917Z,100.00
2023-03-15T01:40:59.382Z,100.00
2023-03-15T01:43:28.351Z,100.00
2023-03-15T01:46:03.765Z,100.00
2023-03-15T01:48:39.735Z,100.00
2023-03-15T01:51:11.508Z,100.00
2023-03-15T01:53:42.106Z,100.00
2023-03-15T01:56:10.553Z,100.00
2023-03-15T01:58:38.666Z,100.00
2023-03-15T02:01:06.223Z,100.00
2023-03-15T02:03:39.358Z,100.00
2023-03-15T02:10:07.931Z,100.00
2023-03-15T02:12:40.637Z,100.00
2023-03-15T02:15:08.679Z,100.00
2023-03-15T02:17:44.316Z,100.00
2023-03-15T02:20:28.684Z,100.00
2023-03-15T02:22:59.542Z,100.00
2023-03-15T02:25:44.595Z,100.00
2023-03-15T02:28:14.722Z,100.00
2023-03-15T02:30:41.907Z,100.00
2023-03-15T02:33:15.003Z,100.00
2023-03-15T02:35:41.427Z,100.00
2023-03-15T02:38:08.008Z,100.00
2023-03-15T02:40:34.654Z,100.00
2023-03-15T02:43:06.527Z,100.00
2023-03-15T02:45:35.111Z,100.00
2023-03-15T02:48:05.487Z,100.00
2023-03-15T02:50:32.264Z,100.00
2023-03-15T02:52:58.715Z,100.00
2023-03-15T02:55:25.234Z,100.00
2023-03-15T02:57:51.665Z,100.00
2023-03-15T03:00:18.646Z,100.00
2023-03-15T03:02:47.056Z,100.00
2023-03-15T03:05:15.658Z,100.00
2023-03-15T03:07:44.890Z,100.00
2023-03-15T03:10:14.598Z,100.00
2023-03-15T03:12:41.054Z,100.00
2023-03-15T03:15:08.252Z,100.00
2023-03-15T03:17:38.494Z,100.00
2023-03-15T03:20:11.612Z,100.00
2023-03-15T03:22:38.067Z,100.00
2023-03-15T03:25:06.315Z,100.00
2023-03-15T03:27:36.605Z,100.00
2023-03-15T03:30:08.287Z,100.00
2023-03-15T03:32:34.872Z,100.00
2023-03-15T03:35:01.413Z,100.00
2023-03-15T03:37:30.911Z,100.00
2023-03-15T03:39:58.092Z,100.00
2023-03-15T03:42:24.925Z,100.00
2023-03-15T03:44:51.441Z,100.00
2023-03-15T03:47:17.839Z,100.00
2023-03-15T03:49:44.320Z,100.00
2023-03-15T03:52:10.910Z,100.00
2023-03-15T03:54:37.360Z,100.00
2023-03-15T03:57:04.179Z,100.00
2023-03-15T03:59:30.759Z,100.00
2023-03-15T04:01:57.172Z,100.00
2023-03-15T04:04:26.213Z,100.00
2023-03-15T04:06:54.522Z,100.00
2023-03-15T04:09:22.013Z,100.00
2023-03-15T04:11:48.574Z,100.00
2023-03-15T04:14:15.261Z,100.00
2023-03-15T04:16:41.862Z,100.00
2023-03-15T04:19:08.677Z,100.00
2023-03-15T04:21:35.652Z,100.00
2023-03-15T04:24:02.678Z,100.00
2023-03-15T04:26:29.663Z,100.00
2023-03-15T04:28:58.179Z,100.00
2023-03-15T04:31:28.842Z,100.00
2023-03-15T04:33:56.520Z,100.00
2023-03-15T04:36:23.757Z,100.00
2023-03-15T04:38:50.508Z,100.00
2023-03-15T04:41:17.977Z,100.00
2023-03-15T04:43:45.379Z,100.00
2023-03-15T04:46:12.075Z,100.00
2023-03-15T04:48:38.613Z,100.00
2023-03-15T04:51:05.344Z,100.00
2023-03-15T04:53:31.867Z,100.00
2023-03-15T04:55:58.305Z,100.00
2023-03-15T04:58:24.872Z,100.00
2023-03-15T05:00:53.941Z,100.00
2023-03-15T05:03:20.550Z,100.00
2023-03-15T05:05:47.020Z,100.00
2023-03-15T05:08:13.510Z,100.00
2023-03-15T05:10:40.020Z,100.00
2023-03-15T05:13:06.674Z,100.00
2023-03-15T05:15:33.213Z,100.00
2023-03-15T05:17:59.759Z,100.00
2023-03-15T05:20:26.427Z,100.00
2023-03-15T05:22:55.664Z,100.00
2023-03-15T05:25:22.794Z,100.00
2023-03-15T05:27:49.274Z,100.00
2023-03-15T05:30:16.353Z,100.00
2023-03-15T05:32:44.657Z,100.00
2023-03-15T05:35:12.413Z,100.00
2023-03-15T05:37:39.269Z,100.00
2023-03-15T05:40:08.185Z,100.00
2023-03-15T05:42:35.034Z,100.00
2023-03-15T05:45:01.540Z,100.00
2023-03-15T05:47:28.178Z,100.00
2023-03-15T05:49:54.696Z,100.00
2023-03-15T05:52:21.155Z,100.00
2023-03-15T05:54:47.601Z,100.00
2023-03-15T05:57:14.075Z,100.00
2023-03-15T05:59:40.617Z,100.00
2023-03-15T06:02:07.533Z,100.00
2023-03-15T06:04:34.181Z,100.00
2023-03-15T06:07:00.691Z,100.00
2023-03-15T06:09:27.173Z,100.00
2023-03-15T06:11:53.766Z,100.00
2023-03-15T06:14:20.238Z,100.00
2023-03-15T06:16:46.768Z,100.00
2023-03-15T06:19:13.272Z,100.00
2023-03-15T06:21:39.738Z,100.00
2023-03-15T06:24:07.312Z,100.00
2023-03-15T06:26:33.790Z,100.00
2023-03-15T06:29:00.653Z,100.00
2023-03-15T06:31:27.315Z,100.00
2023-03-15T06:33:53.801Z,100.00
2023-03-15T06:36:20.478Z,100.00
2023-03-15T06:38:46.938Z,100.00
2023-03-15T06:41:15.567Z,100.00
2023-03-15T06:43:42.413Z,100.00
2023-03-15T06:46:08.856Z,100.00
2023-03-15T06:48:35.406Z,100.00
2023-03-15T06:51:01.875Z,100.00
2023-03-15T06:53:28.354Z,100.00
2023-03-15T06:55:54.887Z,100.00
2023-03-15T06:58:22.298Z,100.00
2023-03-15T07:00:49.828Z,100.00
2023-03-15T07:03:16.476Z,100.00
2023-03-15T07:05:42.955Z,100.00
2023-03-15T07:08:09.389Z,100.00
2023-03-15T07:10:36.454Z,100.00
2023-03-15T07:13:04.309Z,100.00
2023-03-15T07:15:30.863Z,100.00
2023-03-15T07:17:57.358Z,100.00
2023-03-15T07:20:23.786Z,100.00
2023-03-15T07:22:50.275Z,100.00
2023-03-15T07:25:23.718Z,100.00
2023-03-15T07:27:51.080Z,100.00
2023-03-15T07:30:18.113Z,100.00
2023-03-15T07:32:44.720Z,100.00
2023-03-15T07:35:13.477Z,100.00
2023-03-15T07:37:44.315Z,100.00
2023-03-15T07:40:12.571Z,100.00
2023-03-15T07:42:40.344Z,100.00
2023-03-15T07:45:08.716Z,100.00
2023-03-15T07:47:35.339Z,100.00
2023-03-15T07:50:02.192Z,100.00
2023-03-15T07:52:28.624Z,100.00
2023-03-15T07:54:55.092Z,100.00
2023-03-15T07:57:21.590Z,100.00
2023-03-15T07:59:48.088Z,100.00
2023-03-15T08:02:15.135Z,100.00
2023-03-15T08:04:41.865Z,100.00
2023-03-15T08:07:08.420Z,100.00
2023-03-15T08:09:34.939Z,100.00
2023-03-15T08:12:01.970Z,100.00
2023-03-15T08:14:29.274Z,100.00
2023-03-15T08:16:55.836Z,100.00
2023-03-15T08:19:22.365Z,100.00
2023-03-15T08:21:48.798Z,100.00
2023-03-15T08:24:15.610Z,100.00
2023-03-15T08:26:44.748Z,100.00
2023-03-15T08:29:11.225Z,100.00
2023-03-15T08:31:37.995Z,100.00
2023-03-15T08:34:04.429Z,100.00
2023-03-15T08:36:32.708Z,100.00
2023-03-15T08:38:59.251Z,100.00
2023-03-15T08:41:25.742Z,100.00
2023-03-15T08:43:52.305Z,100.00
2023-03-15T08:46:21.944Z,100.00
2023-03-15T08:48:48.549Z,100.00
2023-03-15T08:51:15.022Z,100.00
2023-03-15T08:53:41.479Z,100.00
2023-03-15T08:56:08.115Z,100.00
2023-03-15T08:58:35.418Z,100.00
2023-03-15T09:01:02.206Z,100.00
2023-03-15T09:03:28.926Z,100.00
2023-03-15T09:05:59.068Z,100.00
2023-03-15T09:08:26.567Z,100.00
2023-03-15T09:10:57.643Z,100.00
2023-03-15T09:13:25.070Z,100.00
2023-03-15T09:15:56.044Z,100.00
2023-03-15T09:18:24.217Z,100.00
2023-03-15T09:20:50.704Z,100.00
2023-03-15T09:23:17.251Z,100.00
2023-03-15T09:25:43.983Z,100.00
2023-03-15T09:28:11.917Z,100.00
2023-03-15T09:30:39.820Z,100.00
2023-03-15T09:33:06.569Z,100.00
2023-03-15T09:35:33.455Z,100.00
2023-03-15T09:38:00.604Z,100.00
2023-03-15T09:40:33.437Z,100.00
2023-03-15T09:43:14.042Z,100.00
2023-03-15T09:45:49.376Z,100.00
2023-03-15T09:48:51.510Z,100.00
2023-03-15T09:51:41.146Z,100.00
2023-03-15T09:54:29.457Z,100.00
2023-03-15T09:57:02.357Z,100.00
2023-03-15T09:59:34.874Z,100.00
2023-03-15T10:02:15.146Z,100.00
2023-03-15T10:04:44.613Z,100.00
2023-03-15T10:07:14.678Z,99.41
2023-03-15T10:09:41.197Z,92.81
2023-03-15T10:12:13.496Z,87.41
2023-03-15T10:15:17.899Z,84.43
2023-03-15T10:17:59.640Z,74.47
2023-03-15T10:20:27.324Z,67.35
2023-03-15T10:23:06.633Z,64.32
2023-03-15T10:25:35.577Z,65.13
2023-03-15T10:28:09.921Z,63.75
2023-03-15T10:30:39.167Z,66.73
2023-03-15T10:33:29.088Z,73.42
2023-03-15T10:36:01.279Z,79.56
2023-03-15T10:38:31.268Z,87.66
2023-03-15T10:40:59.347Z,91.17
2023-03-15T10:43:32.495Z,86.03
2023-03-15T10:46:02.190Z,83.03
2023-03-15T10:48:33.714Z,77.09
2023-03-15T10:51:13.990Z,70.85
2023-03-15T10:53:59.579Z,68.29
2023-03-15T10:56:35.306Z,65.36
2023-03-15T10:59:12.331Z,64.92
2023-03-15T11:01:39.530Z,63.64
2023-03-15T11:04:09.131Z,64.92
2023-03-15T11:06:43.887Z,69.10
2023-03-15T11:09:14.603Z,72.94
2023-03-15T11:12:00.927Z,74.52
2023-03-15T11:14:35.042Z,75.80
2023-03-15T11:17:02.687Z,76.23
2023-03-15T11:19:32.446Z,78.05
2023-03-15T11:22:01.410Z,77.62
2023-03-15T11:24:30.721Z,73.73
2023-03-15T11:27:03.601Z,74.05
2023-03-15T11:29:35.477Z,73.14
2023-03-15T11:32:14.034Z,74.38
2023-03-15T11:34:53.890Z,71.40
2023-03-15T11:37:36.878Z,71.71
2023-03-15T11:40:17.292Z,69.29
2023-03-15T11:42:43.985Z,67.71
2023-03-15T11:45:23.667Z,68.34
2023-03-15T11:47:54.843Z,70.81
2023-03-15T11:50:21.473Z,66.82
2023-03-15T11:52:50.600Z,58.93
2023-03-15T11:55:28.740Z,55.61
2023-03-15T11:57:57.821Z,52.00
2023-03-15T12:00:36.385Z,46.75
2023-03-15T12:03:28.330Z,45.03
2023-03-15T12:06:11.325Z,45.22
2023-03-15T12:08:51.596Z,45.05
2023-03-15T12:11:24.079Z,46.68
2023-03-15T12:14:03.834Z,42.22
2023-03-15T12:16:37.880Z,41.57
2023-03-15T12:19:33.852Z,40.70
2023-03-15T12:22:00.605Z,40.06
2023-03-15T12:24:38.802Z,38.39
2023-03-15T12:27:18.551Z,38.19
2023-03-15T12:29:47.127Z,38.61
2023-03-15T12:32:19.682Z,41.43
2023-03-15T12:34:50.839Z,41.91
2023-03-15T12:37:23.247Z,43.43
2023-03-15T12:40:00.191Z,45.31
2023-03-15T12:42:29.364Z,47.41
2023-03-15T12:45:15.781Z,48.18
2023-03-15T12:47:51.429Z,49.63
2023-03-15T12:50:45.917Z,50.27
2023-03-15T12:53:30.847Z,46.42
2023-03-15T12:56:11.184Z,42.92
2023-03-15T12:58:41.170Z,39.40
2023-03-15T13:01:08.255Z,37.09
2023-03-15T13:03:36.038Z,35.92
2023-03-15T13:06:35.027Z,34.59
2023-03-15T13:09:13.464Z,36.27
2023-03-15T13:11:50.620Z,35.53
2023-03-15T13:14:29.719Z,37.07
2023-03-15T13:17:26.921Z,37.95
2023-03-15T13:20:13.740Z,40.65
2023-03-15T13:22:56.172Z,42.84
2023-03-15T13:25:33.056Z,44.68
2023-03-15T13:28:22.464Z,47.37
2023-03-15T13:30:55.126Z,47.02
2023-03-15T13:33:34.175Z,47.47
2023-03-15T13:36:04.309Z,48.12
2023-03-15T13:38:41.023Z,48.55
2023-03-15T13:41:29.203Z,48.37
2023-03-15T13:43:58.354Z,48.19
2023-03-15T13:46:29.387Z,48.32
2023-03-15T13:48:58.675Z,49.75
2023-03-15T13:51:31.572Z,64.15
2023-03-15T13:54:05.546Z,95.47
2023-03-15T13:56:43.692Z,100.00
2023-03-15T13:59:15.496Z,100.00
2023-03-15T14:01:43.005Z,100.00
2023-03-15T14:04:16.170Z,100.00
2023-03-15T14:06:45.673Z,100.00
2023-03-15T14:09:23.398Z,100.00
2023-03-15T14:12:15.477Z,100.00
2023-03-15T14:14:52.549Z,100.00
2023-03-15T14:17:31.587Z,93.73
2023-03-15T14:20:15.213Z,90.23
2023-03-15T14:22:42.076Z,85.21
2023-03-15T14:25:22.302Z,78.32
2023-03-15T14:27:48.837Z,76.18
2023-03-15T14:30:23.127Z,74.53
2023-03-15T14:32:55.194Z,74.05
2023-03-15T14:35:29.576Z,74.59
2023-03-15T14:38:17.996Z,71.29
2023-03-15T14:40:44.672Z,62.76
2023-03-15T14:43:11.301Z,60.01
2023-03-15T14:45:40.400Z,56.55
2023-03-15T14:48:13.266Z,57.27
2023-03-15T14:50:42.367Z,57.36
2023-03-15T14:53:13.580Z,57.70
2023-03-15T14:55:40.707Z,57.91
2023-03-15T14:58:13.056Z,56.09
2023-03-15T15:00:40.336Z,56.52
2023-03-15T15:03:18.623Z,57.43
2023-03-15T15:05:45.448Z,57.73
2023-03-15T15:08:16.230Z,57.57
2023-03-15T15:10:45.194Z,58.50
2023-03-15T15:13:21.454Z,59.09
2023-03-15T15:15:55.815Z,58.42
2023-03-15T15:18:25.211Z,58.72
2023-03-15T15:20:55.443Z,58.99
2023-03-15T15:23:28.186Z,60.09
2023-03-15T15:26:00.470Z,61.70
2023-03-15T15:28:35.353Z,59.70
2023-03-15T15:31:03.773Z,59.89
2023-03-15T15:33:31.445Z,59.09
2023-03-15T15:35:58.278Z,58.57
2023-03-15T15:38:33.021Z,59.67
2023-03-15T15:40:59.678Z,57.83
2023-03-15T15:43:26.160Z,55.94
2023-03-15T15:45:52.708Z,55.50
2023-03-15T15:48:19.176Z,56.30
2023-03-15T15:50:45.642Z,56.86
2023-03-15T15:53:17.282Z,56.96
2023-03-15T15:55:44.252Z,56.73
2023-03-15T15:58:12.735Z,57.27
2023-03-15T16:00:39.404Z,58.01
2023-03-15T16:03:15.100Z,57.97
2023-03-15T16:05:42.607Z,59.50
2023-03-15T16:08:23.947Z,59.11
2023-03-15T16:10:50.570Z,60.25
2023-03-15T16:13:17.364Z,100.00
2023-03-15T16:15:44.008Z,100.00
2023-03-15T16:18:11.750Z,100.00
2023-03-15T16:20:40.476Z,100.00
2023-03-15T16:23:10.968Z,100.00
2023-03-15T16:25:37.498Z,100.00
2023-03-15T16:28:05.238Z,100.00
2023-03-15T16:30:33.049Z,100.00
2023-03-15T16:32:59.627Z,100.00
2023-03-15T16:35:35.867Z,100.00
2023-03-15T16:38:06.162Z,100.00
2023-03-15T16:40:34.653Z,100.00
2023-03-15T16:43:01.208Z,100.00
2023-03-15T16:45:28.044Z,100.00
2023-03-15T16:47:56.319Z,100.00
2023-03-15T16:50:23.253Z,100.00
2023-03-15T16:52:54.726Z,100.00
2023-03-15T16:55:26.584Z,100.00
2023-03-15T16:57:53.182Z,100.00
2023-03-15T17:00:20.705Z,100.00
2023-03-15T17:02:49.574Z,100.00
2023-03-15T17:05:19.001Z,100.00
2023-03-15T17:07:52.651Z,100.00
2023-03-15T17:10:31.405Z,100.00
2023-03-15T17:13:02.319Z,100.00
2023-03-15T17:15:29.717Z,100.00
2023-03-15T17:17:57.582Z,100.00
2023-03-15T17:20:28.630Z,100.00
2023-03-15T17:23:04.410Z,100.00
2023-03-15T17:25:32.051Z,100.00
2023-03-15T17:28:00.169Z,100.00
2023-03-15T17:30:29.895Z,100.00
2023-03-15T17:32:56.493Z,100.00
2023-03-15T17:35:28.762Z,100.00
2023-03-15T17:37:55.591Z,100.00
2023-03-15T17:40:30.721Z,100.00
2023-03-15T17:42:59.465Z,100.00
2023-03-15T17:45:28.719Z,100.00
2023-03-15T17:47:55.624Z,100.00
2023-03-15T17:50:24.009Z,100.00
2023-03-15T17:52:56.299Z,100.00
2023-03-15T17:55:25.062Z,100.00
2023-03-15T17:57:55.006Z,100.00
2023-03-15T18:00:23.608Z,100.00
2023-03-15T18:02:55.525Z,100.00
2023-03-15T18:05:25.165Z,100.00
2023-03-15T18:07:58.617Z,100.00
2023-03-15T18:10:31.506Z,100.00
2023-03-15T18:12:57.950Z,100.00
2023-03-15T18:15:24.621Z,100.00
2023-03-15T18:17:51.188Z,100.00
2023-03-15T18:20:18.882Z,100.00
2023-03-15T18:22:45.336Z,100.00
2023-03-15T18:25:23.780Z,100.00
2023-03-15T18:27:50.503Z,100.00
2023-03-15T18:30:20.521Z,100.00
2023-03-15T18:32:47.480Z,100.00
2023-03-15T18:35:18.003Z,100.00
2023-03-15T18:37:45.057Z,100.00
2023-03-15T18:40:13.887Z,100.00
2023-03-15T18:42:41.382Z,100.00
2023-03-15T18:45:13.985Z,100.00
2023-03-15T18:47:40.414Z,100.00
2023-03-15T18:50:10.626Z,100.00
2023-03-15T18:52:37.435Z,100.00
2023-03-15T18:55:04.574Z,100.00
2023-03-15T18:57:30.991Z,100.00
2023-03-15T18:59:58.139Z,100.00
2023-03-15T19:02:24.708Z,100.00
2023-03-15T19:04:51.329Z,100.00
2023-03-15T19:07:17.814Z,100.00
2023-03-15T19:09:44.722Z,100.00
2023-03-15T19:12:11.321Z,100.00
2023-03-15T19:14:37.815Z,100.00
2023-03-15T19:17:04.569Z,100.00
2023-03-15T19:19:31.365Z,100.00
2023-03-15T19:21:58.833Z,100.00
2023-03-15T19:24:25.310Z,100.00
2023-03-15T19:26:51.797Z,100.00
2023-03-15T19:29:18.347Z,100.00
2023-03-15T19:31:45.144Z,100.00
2023-03-15T19:34:11.645Z,100.00
2023-03-15T19:36:38.124Z,100.00
2023-03-15T19:39:06.661Z,100.00
2023-03-15T19:41:33.079Z,100.00
2023-03-15T19:43:59.555Z,100.00
2023-03-15T19:46:26.133Z,100.00
2023-03-15T19:48:52.577Z,100.00
2023-03-15T19:51:19.216Z,100.00
2023-03-15T19:53:45.671Z,100.00
2023-03-15T19:56:12.176Z,100.00
2023-03-15T19:58:38.668Z,100.00
2023-03-15T20:01:05.447Z,100.00
2023-03-15T20:03:34.710Z,100.00
2023-03-15T20:06:08.773Z,100.00
2023-03-15T20:08:35.818Z,100.00
2023-03-15T20:11:03.965Z,100.00
2023-03-15T20:13:31.204Z,100.00
2023-03-15T20:15:57.730Z,100.00
2023-03-15T20:18:24.280Z,100.00
2023-03-15T20:20:51.739Z,100.00
2023-03-15T20:23:18.939Z,100.00
2023-03-15T20:25:45.509Z,100.00
2023-03-15T20:28:12.503Z,100.00
2023-03-15T20:30:40.280Z,100.00
2023-03-15T20:33:07.403Z,100.00
2023-03-15T20:35:35.375Z,100.00
2023-03-15T20:38:08.768Z,100.00
2023-03-15T20:40:38.489Z,100.00
2023-03-15T20:43:05.950Z,100.00
2023-03-15T20:45:33.222Z,100.00
2023-03-15T20:48:00.509Z,100.00
2023-03-15T20:50:27.008Z,100.00
2023-03-15T20:52:54.239Z,100.00
2023-03-15T20:55:21.160Z,100.00
2023-03-15T20:57:47.621Z,100.00
2023-03-15T21:00:17.993Z,100.00
2023-03-15T21:02:45.969Z,100.00
2023-03-15T21:05:16.139Z,100.00
2023-03-15T21:07:43.948Z,100.00
2023-03-15T21:10:13.644Z,100.00
2023-03-15T21:12:40.150Z,100.00
2023-03-15T21:15:07.179Z,100.00
2023-03-15T21:17:33.692Z,100.00
2023-03-15T21:20:00.736Z,100.00
2023-03-15T21:22:27.204Z,100.00
2023-03-15T21:24:56.397Z,100.00
2023-03-15T21:27:26.113Z,100.00
2023-03-15T21:29:52.836Z,100.00
2023-03-15T21:32:19.285Z,100.00
2023-03-15T21:34:45.698Z,100.00
2023-03-15T21:37:12.163Z,100.00
2023-03-15T21:39:38.643Z,100.00
2023-03-15T21:42:05.424Z,100.00
2023-03-15T21:44:35.813Z,100.00
2023-03-15T21:47:04.492Z,100.00
2023-03-15T21:49:34.079Z,100.00
2023-03-15T21:52:02.335Z,100.00
2023-03-15T21:54:30.123Z,100.00
2023-03-15T21:56:57.628Z,100.00
2023-03-15T21:59:29.870Z,100.00
2023-03-15T22:01:57.319Z,100.00
2023-03-15T22:04:24.562Z,100.00
2023-03-15T22:06:53.907Z,100.00
2023-03-15T22:09:21.494Z,100.00
2023-03-15T22:11:49.202Z,100.00
2023-03-15T22:14:15.675Z,100.00
2023-03-15T22:16:42.223Z,100.00
2023-03-15T22:19:08.748Z,100.00
2023-03-15T22:21:35.207Z,100.00
2023-03-15T22:24:01.768Z,100.00
2023-03-15T22:26:28.354Z,100.00
2023-03-15T22:28:54.811Z,100.00
2023-03-15T22:31:21.349Z,100.00
2023-03-15T22:33:47.922Z,100.00
2023-03-15T22:36:17.015Z,100.00
2023-03-15T22:38:50.256Z,100.00
2023-03-15T22:41:18.867Z,100.00
2023-03-15T22:43:48.199Z,100.00
2023-03-15T22:46:14.744Z,100.00
2023-03-15T22:48:41.212Z,100.00
2023-03-15T22:51:09.765Z,100.00
2023-03-15T22:53:36.454Z,100.00
2023-03-15T22:56:04.099Z,100.00
2023-03-15T22:58:31.122Z,100.00
2023-03-15T23:00:57.787Z,100.00
2023-03-15T23:03:24.358Z,100.00
2023-03-15T23:05:50.803Z,100.00
2023-03-15T23:08:17.326Z,100.00
2023-03-15T23:10:43.963Z,100.00
2023-03-15T23:13:10.444Z,100.00
2023-03-15T23:15:37.055Z,100.00
2023-03-15T23:18:05.210Z,100.00
2023-03-15T23:20:32.689Z,100.00
2023-03-15T23:22:59.279Z,100.00
2023-03-15T23:25:29.328Z,100.00
2023-03-15T23:27:56.707Z,100.00
2023-03-15T23:30:23.240Z,100.00
2023-03-15T23:32:52.274Z,100.00
2023-03-15T23:35:19.004Z,100.00
2023-03-15T23:37:45.462Z,100.00
2023-03-15T23:40:13.738Z,100.00
2023-03-15T23:42:40.221Z,100.00
2023-03-15T23:45:07.200Z,100.00
2023-03-15T23:47:33.856Z,100.00
2023-03-15T23:50:02.276Z,100.00
2023-03-15T23:52:29.064Z,100.00
2023-03-15T23:54:55.743Z,100.00
2023-03-15T23:57:22.552Z,100.00
2023-03-15T23:59:49.108Z,100.00
